WAT2299 VTCC-VYMD
Flight info
| Callsign | WAT2299 |
|---|---|
| Flight time | N/A |
| Altitude | 30000 |
| Route | MHS1B MHS DCT LK DCT DOGIP DOGIP1W |
| Aircraft | MD88/M-SDFGIRWY/C |
Departure
| Time | 2026-05-06 22:15 |
|---|---|
| Airport | Chiang Mai International Airport (VTCC) |
Arrival
| Time | N/A |
|---|---|
| Airport | Mandalay International Airport (VYMD) |
| Time | Latitude | Longitude | Altitude | Speed | Heading |
|---|---|---|---|---|---|
| 2026-05-06 21:49 | 18.76914 | 98.96722 | 1032 ft | 0 kts | 92° |
| 2026-05-06 22:01 | 18.76914 | 98.96721 | 1032 ft | 0 kts | 92° |
| 2026-05-06 22:05 | 18.76916 | 98.96700 | 1032 ft | 4 kts | 103° |
| 2026-05-06 22:06 | 18.76926 | 98.96674 | 1032 ft | 4 kts | 124° |
| 2026-05-06 22:06 | 18.76943 | 98.96655 | 1033 ft | 4 kts | 152° |
| 2026-05-06 22:06 | 18.76966 | 98.96648 | 1033 ft | 2 kts | 180° |
| 2026-05-06 22:06 | 18.76967 | 98.96648 | 1033 ft | 0 kts | 180° |
| 2026-05-06 22:09 | 18.76953 | 98.96648 | 1033 ft | 7 kts | 180° |
| 2026-05-06 22:09 | 18.76894 | 98.96649 | 1032 ft | 8 kts | 173° |
| 2026-05-06 22:09 | 18.76819 | 98.96649 | 1031 ft | 14 kts | 181° |
| 2026-05-06 22:09 | 18.76744 | 98.96602 | 1031 ft | 13 kts | 249° |
| 2026-05-06 22:10 | 18.76703 | 98.96523 | 1030 ft | 13 kts | 202° |
| 2026-05-06 22:10 | 18.76611 | 98.96517 | 1027 ft | 15 kts | 181° |
| 2026-05-06 22:10 | 18.76478 | 98.96516 | 1023 ft | 21 kts | 180° |
| 2026-05-06 22:10 | 18.76330 | 98.96516 | 1024 ft | 21 kts | 180° |
| 2026-05-06 22:11 | 18.76180 | 98.96516 | 1024 ft | 22 kts | 180° |
| 2026-05-06 22:11 | 18.76029 | 98.96514 | 1021 ft | 22 kts | 180° |
| 2026-05-06 22:11 | 18.75877 | 98.96514 | 1023 ft | 22 kts | 180° |
| 2026-05-06 22:11 | 18.75724 | 98.96515 | 1021 ft | 22 kts | 180° |
| 2026-05-06 22:12 | 18.75569 | 98.96515 | 1019 ft | 22 kts | 181° |
| 2026-05-06 22:12 | 18.75426 | 98.96457 | 1018 ft | 22 kts | 208° |
| 2026-05-06 22:12 | 18.75390 | 98.96433 | 1018 ft | 1 kts | 212° |
| 2026-05-06 22:12 | 18.75382 | 98.96428 | 1017 ft | 4 kts | 212° |
| 2026-05-06 22:13 | 18.75319 | 98.96354 | 1016 ft | 17 kts | 257° |
| 2026-05-06 22:13 | 18.75363 | 98.96282 | 1016 ft | 3 kts | 356° |
| 2026-05-06 22:14 | 18.75384 | 98.96282 | 1016 ft | 15 kts | 1° |
| 2026-05-06 22:14 | 18.75674 | 98.96284 | 1020 ft | 70 kts | 0° |
| 2026-05-06 22:14 | 18.76366 | 98.96287 | 1025 ft | 127 kts | 0° |
| 2026-05-06 22:14 | 18.77407 | 98.96301 | 1041 ft | 171 kts | 2° |
| 2026-05-06 22:15 | 18.78611 | 98.96343 | 1621 ft | 169 kts | 2° |
| 2026-05-06 22:15 | 18.79752 | 98.96391 | 2122 ft | 173 kts | 1° |
| 2026-05-06 22:15 | 18.80493 | 98.96426 | 2283 ft | 183 kts | 1° |
| 2026-05-06 22:15 | 18.81283 | 98.96465 | 2405 ft | 193 kts | 3° |
| 2026-05-06 22:16 | 18.82642 | 98.96863 | 2507 ft | 218 kts | 30° |
| 2026-05-06 22:16 | 18.83890 | 98.97930 | 2624 ft | 243 kts | 51° |
| 2026-05-06 22:16 | 18.84787 | 98.99541 | 2898 ft | 261 kts | 70° |
| 2026-05-06 22:16 | 18.85201 | 99.01449 | 3253 ft | 273 kts | 89° |
| 2026-05-06 22:17 | 18.84860 | 99.03403 | 3849 ft | 273 kts | 118° |
| 2026-05-06 22:17 | 18.83665 | 99.04929 | 4527 ft | 272 kts | 148° |
| 2026-05-06 22:17 | 18.81926 | 99.05651 | 5198 ft | 273 kts | 175° |
| 2026-05-06 22:17 | 18.80032 | 99.05486 | 5811 ft | 274 kts | 193° |
| 2026-05-06 22:18 | 18.78156 | 99.05080 | 6452 ft | 277 kts | 192° |
| 2026-05-06 22:18 | 18.76250 | 99.04752 | 7047 ft | 279 kts | 189° |
| 2026-05-06 22:18 | 18.74303 | 99.04497 | 7617 ft | 284 kts | 190° |
| 2026-05-06 22:18 | 18.72454 | 99.03826 | 8173 ft | 283 kts | 217° |
| 2026-05-06 22:19 | 18.71155 | 99.02301 | 8738 ft | 283 kts | 246° |
| 2026-05-06 22:19 | 18.70716 | 99.00296 | 9284 ft | 284 kts | 273° |
| 2026-05-06 22:19 | 18.71224 | 98.98298 | 9826 ft | 286 kts | 300° |
| 2026-05-06 22:19 | 18.72509 | 98.96689 | 10129 ft | 299 kts | 316° |
| 2026-05-06 22:20 | 18.74069 | 98.95157 | 10311 ft | 314 kts | 314° |
| 2026-05-06 22:20 | 18.75590 | 98.93435 | 10468 ft | 327 kts | 309° |
| 2026-05-06 22:20 | 18.77029 | 98.91514 | 10624 ft | 341 kts | 305° |
| 2026-05-06 22:20 | 18.78430 | 98.89397 | 10760 ft | 354 kts | 302° |
| 2026-05-06 22:21 | 18.79776 | 98.87169 | 10966 ft | 365 kts | 300° |
| 2026-05-06 22:21 | 18.81088 | 98.84861 | 11442 ft | 367 kts | 300° |
| 2026-05-06 22:21 | 18.82370 | 98.82524 | 11954 ft | 368 kts | 299° |
| 2026-05-06 22:21 | 18.83641 | 98.80171 | 12439 ft | 371 kts | 298° |
| 2026-05-06 22:22 | 18.84001 | 98.79503 | 12572 ft | 371 kts | 298° |
| 2026-05-06 22:22 | 18.85106 | 98.77442 | 12990 ft | 374 kts | 298° |
| 2026-05-06 22:22 | 18.86392 | 98.75049 | 13480 ft | 377 kts | 299° |
| 2026-05-06 22:22 | 18.87695 | 98.72635 | 13976 ft | 379 kts | 299° |
| 2026-05-06 22:23 | 18.89009 | 98.70218 | 14454 ft | 380 kts | 299° |
| 2026-05-06 22:23 | 18.89292 | 98.69699 | 14567 ft | 380 kts | 299° |
| 2026-05-06 22:23 | 18.90236 | 98.67972 | 14932 ft | 381 kts | 299° |
| 2026-05-06 22:23 | 18.91569 | 98.65541 | 15396 ft | 385 kts | 299° |
| 2026-05-06 22:24 | 18.92918 | 98.63084 | 15857 ft | 387 kts | 299° |
| 2026-05-06 22:24 | 18.93941 | 98.61215 | 16287 ft | 388 kts | 299° |
| 2026-05-06 22:24 | 18.94001 | 98.61104 | 16314 ft | 388 kts | 299° |
| 2026-05-06 22:24 | 18.95351 | 98.58631 | 16834 ft | 389 kts | 299° |
| 2026-05-06 22:25 | 18.96687 | 98.56177 | 17296 ft | 392 kts | 299° |
| 2026-05-06 22:25 | 18.98070 | 98.53635 | 17749 ft | 396 kts | 299° |